createdAt,value
2018-09-18T00:00:12.087Z,14.44
2018-09-18T00:01:40.635Z,14.45
2018-09-18T00:03:06.315Z,14.46
2018-09-18T00:04:33.450Z,14.47
2018-09-18T00:06:00.897Z,14.47
2018-09-18T00:07:29.284Z,14.45
2018-09-18T00:10:23.952Z,14.43
2018-09-18T00:11:51.402Z,14.43
2018-09-18T00:13:18.813Z,14.43
2018-09-18T00:14:46.249Z,14.43
2018-09-18T00:16:13.580Z,14.42
2018-09-18T00:17:40.908Z,14.42
2018-09-18T00:19:07.321Z,14.42
2018-09-18T00:20:34.701Z,14.42
2018-09-18T00:22:02.095Z,14.43
2018-09-18T00:23:29.453Z,14.44
2018-09-18T00:24:56.659Z,14.46
2018-09-18T00:26:21.809Z,14.45
2018-09-18T00:27:49.177Z,14.43
2018-09-18T00:29:17.519Z,14.42
2018-09-18T00:30:43.874Z,14.40
2018-09-18T00:32:10.638Z,14.39
2018-09-18T00:33:37.495Z,14.37
2018-09-18T00:35:04.329Z,14.36
2018-09-18T00:36:31.736Z,14.37
2018-09-18T00:37:59.119Z,14.37
2018-09-18T00:39:25.561Z,14.38
2018-09-18T00:40:54.078Z,14.39
2018-09-18T00:42:20.359Z,14.42
2018-09-18T00:43:47.828Z,14.44
2018-09-18T00:45:13.350Z,14.45
2018-09-18T00:46:41.128Z,14.44
2018-09-18T00:48:07.934Z,14.42
2018-09-18T00:49:33.598Z,14.41
2018-09-18T00:51:01.100Z,14.39
2018-09-18T00:52:28.327Z,14.33
2018-09-18T00:53:55.850Z,14.29
2018-09-18T00:55:22.298Z,14.23
2018-09-18T00:56:50.802Z,14.13
2018-09-18T00:58:18.325Z,14.06
2018-09-18T00:59:43.983Z,14.01
2018-09-18T01:01:11.664Z,13.96
2018-09-18T01:02:38.372Z,13.91
2018-09-18T01:04:05.418Z,13.84
2018-09-18T01:05:30.893Z,13.80
2018-09-18T01:06:59.240Z,13.81
2018-09-18T01:08:26.449Z,13.82
2018-09-18T01:09:52.891Z,13.80
2018-09-18T01:11:21.452Z,13.77
2018-09-18T01:12:47.875Z,13.76
2018-09-18T01:14:16.118Z,13.77
2018-09-18T01:15:43.657Z,13.75
2018-09-18T01:17:10.896Z,13.76
2018-09-18T01:18:38.316Z,13.77
2018-09-18T01:20:05.477Z,13.78
2018-09-18T01:21:31.682Z,13.80
2018-09-18T01:23:00.210Z,13.80
2018-09-18T01:24:26.705Z,13.81
2018-09-18T01:25:52.883Z,13.83
2018-09-18T01:27:21.242Z,13.84
2018-09-18T01:28:46.948Z,13.84
2018-09-18T01:30:15.395Z,13.85
2018-09-18T01:31:41.697Z,13.83
2018-09-18T01:33:09.735Z,13.81
2018-09-18T01:34:35.334Z,13.79
2018-09-18T01:36:02.080Z,13.76
2018-09-18T01:37:29.566Z,13.71
2018-09-18T01:38:56.997Z,13.68
2018-09-18T01:40:23.436Z,13.68
2018-09-18T01:41:49.904Z,13.64
2018-09-18T01:43:17.106Z,13.60
2018-09-18T01:44:45.289Z,13.60
2018-09-18T01:46:11.903Z,13.61
2018-09-18T01:47:37.611Z,13.60
2018-09-18T01:49:05.958Z,13.62
2018-09-18T01:50:32.295Z,13.62
2018-09-18T01:52:00.709Z,13.63
2018-09-18T01:53:28.115Z,13.62
2018-09-18T01:54:55.538Z,13.59
2018-09-18T01:56:20.742Z,13.58
2018-09-18T01:57:49.150Z,13.57
2018-09-18T01:59:16.584Z,13.59
2018-09-18T02:00:45.858Z,13.60
2018-09-18T02:02:12.332Z,13.61
2018-09-18T02:03:36.644Z,13.63
2018-09-18T02:05:02.076Z,13.63
2018-09-18T02:06:30.389Z,13.63
2018-09-18T02:07:57.811Z,13.65
2018-09-18T02:09:25.231Z,13.63
2018-09-18T02:10:52.685Z,13.63
2018-09-18T02:12:18.021Z,13.65
2018-09-18T02:13:44.353Z,13.65
2018-09-18T02:15:12.439Z,13.66
2018-09-18T02:16:39.854Z,13.65
2018-09-18T02:18:07.153Z,13.65
2018-09-18T02:19:34.081Z,13.66
2018-09-18T02:21:00.362Z,13.67
2018-09-18T02:22:27.860Z,13.67
2018-09-18T02:23:56.280Z,13.67
2018-09-18T02:25:23.643Z,13.67
2018-09-18T02:26:50.972Z,13.68
2018-09-18T02:28:17.332Z,13.67
2018-09-18T02:29:44.737Z,13.67
2018-09-18T02:31:12.189Z,13.67
2018-09-18T02:32:39.516Z,13.66
2018-09-18T02:34:05.222Z,13.64
2018-09-18T02:35:32.445Z,13.63
2018-09-18T02:36:59.915Z,13.63
2018-09-18T02:38:26.340Z,13.64
2018-09-18T02:39:53.726Z,13.64
2018-09-18T02:41:21.116Z,13.60
2018-09-18T02:42:49.607Z,13.58
2018-09-18T02:44:15.841Z,13.56
2018-09-18T02:45:44.327Z,13.55
2018-09-18T02:47:10.812Z,13.56
2018-09-18T02:48:39.251Z,13.56
2018-09-18T02:50:06.693Z,13.55
2018-09-18T02:51:33.284Z,13.54
2018-09-18T02:52:58.699Z,13.52
2018-09-18T02:54:26.973Z,13.48
2018-09-18T02:55:53.541Z,13.43
2018-09-18T02:57:19.746Z,13.39
2018-09-18T02:58:48.277Z,13.34
2018-09-18T03:00:15.527Z,13.33
2018-09-18T03:01:41.188Z,13.33
2018-09-18T03:03:07.684Z,13.33
2018-09-18T03:04:34.929Z,13.33
2018-09-18T03:06:03.293Z,13.33
2018-09-18T03:07:30.745Z,13.32
2018-09-18T03:08:56.911Z,13.31
2018-09-18T03:10:24.126Z,13.30
2018-09-18T03:11:51.775Z,13.29
2018-09-18T03:13:17.967Z,13.27
2018-09-18T03:14:46.346Z,13.26
2018-09-18T03:16:13.555Z,13.26
2018-09-18T03:17:40.954Z,13.26
2018-09-18T03:19:07.419Z,13.26
2018-09-18T03:20:34.769Z,13.26
2018-09-18T03:22:02.071Z,13.27
2018-09-18T03:23:29.428Z,13.29
2018-09-18T03:24:54.847Z,13.31
2018-09-18T03:26:23.366Z,13.32
2018-09-18T03:27:50.897Z,13.34
2018-09-18T03:29:17.421Z,13.35
2018-09-18T03:30:44.017Z,13.34
2018-09-18T03:32:09.375Z,13.33
2018-09-18T03:33:37.882Z,13.32
2018-09-18T03:36:33.389Z,13.33
2018-09-18T03:37:57.692Z,13.34
2018-09-18T03:39:24.103Z,13.35
2018-09-18T03:40:51.324Z,13.36
2018-09-18T03:42:16.596Z,13.36
2018-09-18T03:43:42.621Z,13.36
2018-09-18T03:45:10.046Z,13.36
2018-09-18T03:46:36.645Z,13.36
2018-09-18T03:48:03.985Z,13.37
2018-09-18T03:49:31.377Z,13.38
2018-09-18T03:50:56.424Z,13.40
2018-09-18T03:52:24.863Z,13.42
2018-09-18T03:53:52.033Z,13.44
2018-09-18T03:55:19.518Z,13.46
2018-09-18T03:56:45.733Z,13.48
2018-09-18T03:58:11.260Z,13.50
2018-09-18T03:59:39.555Z,13.49
2018-09-18T04:01:06.848Z,13.47
2018-09-18T04:02:33.164Z,13.39
2018-09-18T04:04:01.483Z,13.30
2018-09-18T04:05:28.837Z,13.16
2018-09-18T04:06:55.118Z,13.05
2018-09-18T04:08:22.405Z,12.97
2018-09-18T04:09:50.972Z,12.92
2018-09-18T04:11:20.390Z,12.90
2018-09-18T04:12:44.575Z,12.87
2018-09-18T04:14:10.942Z,12.84
2018-09-18T04:15:37.995Z,12.81
2018-09-18T04:17:06.525Z,12.78
2018-09-18T04:18:34.029Z,12.77
2018-09-18T04:19:59.285Z,12.77
2018-09-18T04:21:26.779Z,12.79
2018-09-18T04:22:54.148Z,12.83
2018-09-18T04:24:20.486Z,12.86
2018-09-18T04:25:47.930Z,12.89
2018-09-18T04:27:16.342Z,12.93
2018-09-18T04:28:48.464Z,12.96
2018-09-18T04:30:09.621Z,12.98
2018-09-18T04:31:36.424Z,13.00
2018-09-18T04:33:01.833Z,13.03
2018-09-18T04:34:28.973Z,13.05
2018-09-18T04:35:56.338Z,13.08
2018-09-18T04:37:23.609Z,13.10
2018-09-18T04:38:50.005Z,13.13
2018-09-18T04:40:18.416Z,13.14
2018-09-18T04:41:46.981Z,13.17
2018-09-18T04:43:12.292Z,13.18
2018-09-18T04:44:39.341Z,13.19
2018-09-18T04:47:33.451Z,13.21
2018-09-18T04:48:59.608Z,13.21
2018-09-18T04:50:28.029Z,13.22
2018-09-18T04:53:21.526Z,13.23
2018-09-18T04:54:47.561Z,13.28
2018-09-18T04:56:13.613Z,13.33
2018-09-18T04:57:40.941Z,13.38
2018-09-18T04:59:09.312Z,13.42
2018-09-18T05:00:35.920Z,13.46
2018-09-18T05:02:03.365Z,13.49
2018-09-18T05:03:29.508Z,13.54
2018-09-18T05:04:56.943Z,13.56
2018-09-18T05:07:51.621Z,13.64
2018-09-18T05:09:17.979Z,13.65
2018-09-18T05:10:45.474Z,13.68
2018-09-18T05:12:13.907Z,13.71
2018-09-18T05:13:39.289Z,13.75
2018-09-18T05:15:06.805Z,13.79
2018-09-18T05:16:36.132Z,13.81
2018-09-18T05:18:01.727Z,13.84
2018-09-18T05:19:27.889Z,13.84
2018-09-18T05:20:54.982Z,13.85
2018-09-18T05:22:21.293Z,13.88
2018-09-18T05:23:47.726Z,13.92
2018-09-18T05:25:14.920Z,13.94
2018-09-18T05:26:43.477Z,13.97
2018-09-18T05:28:10.842Z,14.01
2018-09-18T05:29:37.545Z,14.03
2018-09-18T05:31:03.801Z,14.06
2018-09-18T05:32:30.054Z,14.10
2018-09-18T05:33:58.455Z,14.13
2018-09-18T05:35:25.785Z,14.17
2018-09-18T05:36:52.062Z,14.19
2018-09-18T05:38:19.600Z,14.20
2018-09-18T05:39:47.003Z,14.21
2018-09-18T05:41:15.285Z,14.23
2018-09-18T05:42:42.686Z,14.25
2018-09-18T05:44:09.076Z,14.27
2018-09-18T05:45:36.151Z,14.28
2018-09-18T05:47:02.540Z,14.30
2018-09-18T05:48:31.146Z,14.33
2018-09-18T05:49:56.602Z,14.35
2018-09-18T05:51:22.857Z,14.38
2018-09-18T05:52:50.403Z,14.43
2018-09-18T05:54:17.787Z,14.47
2018-09-18T05:55:44.297Z,14.52
2018-09-18T05:57:11.703Z,14.56
2018-09-18T05:58:38.871Z,14.61
2018-09-18T06:01:33.483Z,14.73
2018-09-18T06:02:59.754Z,14.77
2018-09-18T06:04:26.155Z,14.82
2018-09-18T06:05:54.689Z,14.88
2018-09-18T06:07:20.114Z,14.94
2018-09-18T06:08:47.430Z,14.99
2018-09-18T06:10:13.676Z,15.06
2018-09-18T06:11:41.972Z,15.11
2018-09-18T06:13:07.680Z,15.16
2018-09-18T06:14:34.838Z,15.23
2018-09-18T06:16:02.288Z,15.30
2018-09-18T06:17:29.557Z,15.36
2018-09-18T06:18:56.955Z,15.43
2018-09-18T06:20:24.275Z,15.51
2018-09-18T06:21:51.660Z,15.62
2018-09-18T06:23:17.992Z,15.75
2018-09-18T06:24:46.582Z,15.88
2018-09-18T06:26:13.980Z,16.00
2018-09-18T06:27:41.460Z,16.12
2018-09-18T06:29:08.443Z,16.24
2018-09-18T06:30:35.763Z,16.34
2018-09-18T06:32:02.211Z,16.42
2018-09-18T06:33:30.440Z,16.51
2018-09-18T06:35:02.639Z,16.59
2018-09-18T06:36:23.915Z,16.64
2018-09-18T06:37:50.415Z,16.69
2018-09-18T06:39:18.787Z,16.74
2018-09-18T06:40:45.153Z,16.78
2018-09-18T06:42:12.603Z,16.82
2018-09-18T06:43:39.479Z,16.87
2018-09-18T06:45:04.152Z,16.91
2018-09-18T06:46:32.571Z,16.96
2018-09-18T06:48:00.182Z,16.99
2018-09-18T06:49:25.214Z,17.02
2018-09-18T06:50:53.781Z,17.06
2018-09-18T06:52:21.079Z,17.10
2018-09-18T06:53:47.431Z,17.13
2018-09-18T06:55:14.613Z,17.17
2018-09-18T06:56:40.961Z,17.20
2018-09-18T06:58:07.244Z,17.23
2018-09-18T06:59:34.559Z,17.26
2018-09-18T07:01:02.977Z,17.29
2018-09-18T07:02:29.419Z,17.32
2018-09-18T07:03:56.683Z,17.34
2018-09-18T07:05:24.327Z,17.36
2018-09-18T07:06:52.691Z,17.42
2018-09-18T07:08:20.009Z,17.47
2018-09-18T07:11:13.825Z,17.55
2018-09-18T07:12:41.194Z,17.60
2018-09-18T07:14:10.126Z,17.64
2018-09-18T07:15:33.505Z,17.67
2018-09-18T07:17:01.115Z,17.71
2018-09-18T07:18:28.570Z,17.76
2018-09-18T07:19:57.080Z,17.82
2018-09-18T07:21:24.560Z,17.87
2018-09-18T07:22:50.960Z,17.94
2018-09-18T07:24:19.565Z,18.00
2018-09-18T07:25:46.832Z,18.04
2018-09-18T07:27:13.269Z,18.10
2018-09-18T07:28:41.689Z,18.16
2018-09-18T07:30:08.753Z,18.22
2018-09-18T07:31:36.121Z,18.29
2018-09-18T07:33:05.633Z,18.35
2018-09-18T07:34:30.208Z,18.41
2018-09-18T07:35:57.612Z,18.53
2018-09-18T07:37:25.200Z,18.59
2018-09-18T07:38:52.731Z,18.64
2018-09-18T07:40:20.121Z,18.70
2018-09-18T07:41:48.480Z,18.77
2018-09-18T07:43:12.807Z,18.85
2018-09-18T07:44:40.103Z,18.91
2018-09-18T07:46:06.573Z,18.99
2018-09-18T07:47:34.056Z,19.04
2018-09-18T07:49:02.620Z,19.09
2018-09-18T07:50:29.015Z,19.16
2018-09-18T07:51:56.421Z,19.21
2018-09-18T07:53:23.980Z,19.27
2018-09-18T07:54:51.145Z,19.42
2018-09-18T07:56:19.685Z,19.47
2018-09-18T07:57:47.085Z,19.51
2018-09-18T07:59:14.490Z,19.57
2018-09-18T08:00:41.754Z,19.63
2018-09-18T08:02:08.527Z,19.69
2018-09-18T08:03:35.440Z,19.74
2018-09-18T08:05:01.676Z,19.78
2018-09-18T08:06:30.147Z,19.86
2018-09-18T08:07:57.580Z,19.92
2018-09-18T08:09:23.925Z,19.95
2018-09-18T08:10:53.577Z,19.99
2018-09-18T08:12:18.180Z,20.04
2018-09-18T08:13:44.806Z,20.09
2018-09-18T08:15:12.288Z,20.15
2018-09-18T08:16:40.496Z,20.23
2018-09-18T08:18:06.341Z,20.29
2018-09-18T08:19:35.230Z,20.35
2018-09-18T08:21:01.465Z,20.38
2018-09-18T08:22:28.994Z,20.48
2018-09-18T08:23:57.591Z,20.53
2018-09-18T08:25:23.934Z,20.58
2018-09-18T08:26:52.547Z,20.63
2018-09-18T08:28:20.087Z,20.65
2018-09-18T08:29:45.648Z,20.68
2018-09-18T08:31:13.240Z,20.71
2018-09-18T08:34:07.792Z,20.87
2018-09-18T08:35:35.342Z,20.90
2018-09-18T08:37:02.818Z,20.95
2018-09-18T08:38:31.467Z,21.02
2018-09-18T08:39:57.935Z,21.06
2018-09-18T08:41:25.431Z,21.19
2018-09-18T08:42:52.875Z,21.28
2018-09-18T08:45:48.899Z,21.33
2018-09-18T08:47:16.352Z,21.39
2018-09-18T08:48:42.646Z,21.46
2018-09-18T08:50:10.074Z,21.53
2018-09-18T08:51:37.453Z,21.60
2018-09-18T08:53:05.256Z,21.67
2018-09-18T08:54:33.725Z,21.74
2018-09-18T08:56:01.244Z,21.79
2018-09-18T08:57:27.757Z,21.84
2018-09-18T08:58:55.510Z,21.90
2018-09-18T09:00:23.988Z,21.94
2018-09-18T09:01:51.620Z,22.00
2018-09-18T09:03:17.311Z,22.07
2018-09-18T09:04:45.836Z,22.09
2018-09-18T09:06:13.432Z,22.15
2018-09-18T09:07:42.959Z,22.18
2018-09-18T09:09:07.463Z,22.23
2018-09-18T09:10:35.982Z,22.28
2018-09-18T09:12:03.457Z,22.35
2018-09-18T09:13:30.939Z,22.38
2018-09-18T09:14:57.580Z,22.45
2018-09-18T09:16:26.089Z,22.51
2018-09-18T09:17:53.673Z,22.56
2018-09-18T09:19:21.193Z,22.64
2018-09-18T09:20:48.768Z,22.68
2018-09-18T09:22:20.598Z,22.77
2018-09-18T09:23:42.902Z,22.81
2018-09-18T09:25:09.141Z,22.85
2018-09-18T09:26:36.612Z,22.91
2018-09-18T09:28:04.136Z,22.96
2018-09-18T09:29:32.838Z,23.02
2018-09-18T09:30:59.243Z,23.07
2018-09-18T09:32:27.689Z,23.14
2018-09-18T09:33:55.144Z,23.21
2018-09-18T09:35:22.700Z,23.28
2018-09-18T09:36:49.341Z,23.33
2018-09-18T09:38:15.763Z,23.39
2018-09-18T09:39:43.464Z,23.44
2018-09-18T09:41:11.744Z,23.49
2018-09-18T09:42:38.010Z,23.56
2018-09-18T09:44:05.486Z,23.62
2018-09-18T09:45:32.894Z,23.69
2018-09-18T09:47:00.300Z,23.76
2018-09-18T09:48:27.772Z,23.83
2018-09-18T09:49:54.237Z,23.89
2018-09-18T09:51:21.878Z,23.96
2018-09-18T09:52:49.256Z,24.05
2018-09-18T09:54:17.860Z,24.12
2018-09-18T09:55:45.306Z,24.21
2018-09-18T09:57:11.647Z,24.30
2018-09-18T09:58:40.148Z,24.40
2018-09-18T10:00:07.195Z,24.48
2018-09-18T10:01:34.730Z,24.54
2018-09-18T10:03:00.554Z,24.62
2018-09-18T10:04:28.118Z,24.70
2018-09-18T10:05:55.684Z,24.78
2018-09-18T10:07:23.147Z,24.86
2018-09-18T10:08:50.870Z,24.91
2018-09-18T10:10:18.411Z,24.98
2018-09-18T10:11:46.094Z,25.05
2018-09-18T10:13:14.042Z,25.13
2018-09-18T10:14:40.764Z,25.22
2018-09-18T10:16:07.800Z,25.31
2018-09-18T10:17:35.308Z,25.42
2018-09-18T10:19:03.860Z,25.52
2018-09-18T10:20:29.804Z,25.61
2018-09-18T10:21:57.385Z,25.72
2018-09-18T10:23:24.466Z,25.79
2018-09-18T10:24:51.877Z,25.84
2018-09-18T10:26:20.388Z,25.88
2018-09-18T10:27:46.925Z,25.93
2018-09-18T10:29:14.732Z,25.97
2018-09-18T10:30:41.205Z,26.02
2018-09-18T10:32:08.900Z,26.07
2018-09-18T10:33:36.373Z,26.10
2018-09-18T10:35:03.974Z,26.17
2018-09-18T10:36:31.697Z,26.20
2018-09-18T10:37:58.351Z,26.22
2018-09-18T10:39:25.563Z,26.24
2018-09-18T10:40:52.126Z,26.27
2018-09-18T10:42:19.731Z,26.32
2018-09-18T10:43:47.372Z,26.38
2018-09-18T10:45:15.343Z,26.43
2018-09-18T10:46:41.758Z,26.48
2018-09-18T10:48:10.342Z,26.54
2018-09-18T10:49:36.525Z,26.59
2018-09-18T10:51:05.132Z,26.65
2018-09-18T10:52:31.665Z,26.70
2018-09-18T10:53:59.212Z,26.75
2018-09-18T10:55:25.963Z,26.81
2018-09-18T10:56:53.611Z,26.85
2018-09-18T10:58:21.212Z,26.90
2018-09-18T10:59:48.756Z,26.96
2018-09-18T11:01:17.377Z,27.00
2018-09-18T11:02:44.007Z,27.07
2018-09-18T11:04:11.526Z,27.12
2018-09-18T11:05:39.192Z,27.17
2018-09-18T11:07:07.711Z,27.22
2018-09-18T11:08:34.409Z,27.30
2018-09-18T11:10:02.049Z,27.36
2018-09-18T11:11:30.776Z,27.42
2018-09-18T11:12:58.258Z,27.48
2018-09-18T11:14:24.820Z,27.54
2018-09-18T11:15:52.546Z,27.63
2018-09-18T11:17:19.955Z,27.75
2018-09-18T11:18:46.784Z,27.88
2018-09-18T11:20:15.435Z,28.05
2018-09-18T11:21:41.100Z,28.17
2018-09-18T11:23:07.761Z,28.32
2018-09-18T11:24:34.825Z,28.48
2018-09-18T11:26:02.185Z,28.60
2018-09-18T11:27:30.287Z,28.73
2018-09-18T11:28:56.802Z,28.81
2018-09-18T11:30:24.614Z,28.82
2018-09-18T11:31:52.131Z,28.94
2018-09-18T11:33:19.828Z,29.07
2018-09-18T11:34:47.884Z,29.18
2018-09-18T11:36:14.764Z,29.27
2018-09-18T11:37:42.149Z,29.33
2018-09-18T11:39:08.337Z,29.44
2018-09-18T11:40:36.987Z,29.52
2018-09-18T11:42:03.228Z,29.60
2018-09-18T11:43:30.858Z,29.55
2018-09-18T11:44:59.579Z,29.61
2018-09-18T11:46:26.467Z,29.73
2018-09-18T11:47:53.120Z,29.78
2018-09-18T11:49:19.950Z,29.89
2018-09-18T11:50:47.621Z,29.98
2018-09-18T11:52:14.112Z,30.08
2018-09-18T11:53:42.843Z,30.20
2018-09-18T11:55:10.244Z,30.34
2018-09-18T11:56:36.349Z,30.46
2018-09-18T11:58:03.988Z,30.39
2018-09-18T11:59:31.515Z,30.54
2018-09-18T12:00:59.159Z,30.68
2018-09-18T12:02:26.847Z,30.75
2018-09-18T12:03:55.439Z,30.83
2018-09-18T12:05:22.135Z,30.97
2018-09-18T12:06:49.613Z,31.08
2018-09-18T12:08:17.395Z,31.19
2018-09-18T12:09:45.074Z,31.18
2018-09-18T12:11:12.476Z,31.20
2018-09-18T12:12:40.111Z,31.24
2018-09-18T12:14:07.693Z,31.26
2018-09-18T12:15:35.965Z,31.32
2018-09-18T12:17:02.505Z,31.29
2018-09-18T12:18:29.583Z,31.28
2018-09-18T12:19:57.248Z,31.33
2018-09-18T12:21:24.429Z,31.31
2018-09-18T12:22:51.957Z,31.31
2018-09-18T12:24:19.603Z,31.34
2018-09-18T12:25:47.879Z,31.43
2018-09-18T12:27:15.462Z,31.50
2018-09-18T12:28:42.113Z,31.54
2018-09-18T12:30:09.609Z,31.58
2018-09-18T12:31:37.115Z,31.64
2018-09-18T12:33:04.066Z,31.66
2018-09-18T12:34:31.421Z,31.72
2018-09-18T12:35:59.214Z,31.77
2018-09-18T12:37:26.930Z,31.78
2018-09-18T12:38:55.145Z,31.84
2018-09-18T12:40:20.725Z,31.89
2018-09-18T12:41:48.562Z,31.92
2018-09-18T12:43:16.019Z,31.94
2018-09-18T12:44:43.512Z,31.95
2018-09-18T12:46:11.060Z,31.97
2018-09-18T12:47:38.780Z,31.91
2018-09-18T12:49:06.455Z,31.85
2018-09-18T12:50:34.175Z,31.79
2018-09-18T12:52:01.886Z,31.85
2018-09-18T12:53:29.656Z,31.82
2018-09-18T12:54:57.440Z,31.83
2018-09-18T12:56:24.839Z,31.78
2018-09-18T12:57:52.612Z,31.74
2018-09-18T12:59:20.197Z,31.75
2018-09-18T13:00:47.674Z,31.76
2018-09-18T13:02:16.333Z,31.77
2018-09-18T13:03:43.873Z,31.79
2018-09-18T13:05:11.386Z,31.80
2018-09-18T13:06:38.254Z,31.84
2018-09-18T13:08:05.781Z,31.76
2018-09-18T13:09:33.302Z,31.71
2018-09-18T13:11:01.075Z,31.69
2018-09-18T13:12:28.421Z,31.71
2018-09-18T13:13:56.074Z,31.72
2018-09-18T13:15:23.685Z,31.75
2018-09-18T13:16:51.286Z,31.78
2018-09-18T13:18:18.031Z,31.84
2018-09-18T13:19:46.638Z,31.82
2018-09-18T13:21:13.248Z,31.81
2018-09-18T13:22:41.934Z,31.80
2018-09-18T13:24:08.057Z,31.75
2018-09-18T13:25:36.387Z,31.74
2018-09-18T13:27:03.122Z,31.69
2018-09-18T13:28:30.949Z,31.66
2018-09-18T13:29:57.704Z,31.71
2018-09-18T13:31:26.284Z,31.76
2018-09-18T13:32:52.903Z,31.77
2018-09-18T13:34:21.717Z,31.78
2018-09-18T13:35:48.393Z,31.75
2018-09-18T13:37:16.014Z,31.75
2018-09-18T13:38:44.655Z,31.69
2018-09-18T13:40:11.251Z,31.64
2018-09-18T13:41:39.369Z,31.63
2018-09-18T13:43:05.930Z,31.61
2018-09-18T13:44:34.185Z,31.60
2018-09-18T13:46:00.894Z,31.52
2018-09-18T13:47:28.599Z,31.47
2018-09-18T13:48:56.298Z,31.42
2018-09-18T13:50:24.096Z,31.40
2018-09-18T13:51:51.744Z,31.34
2018-09-18T13:53:19.420Z,31.33
2018-09-18T13:54:47.083Z,31.24
2018-09-18T13:56:14.811Z,31.19
2018-09-18T13:57:42.497Z,31.12
2018-09-18T13:59:10.880Z,31.05
2018-09-18T14:00:37.484Z,30.99
2018-09-18T14:02:04.421Z,30.94
2018-09-18T14:03:33.064Z,30.90
2018-09-18T14:05:00.849Z,30.83
2018-09-18T14:06:26.693Z,30.75
2018-09-18T14:07:54.006Z,30.70
2018-09-18T14:09:21.555Z,30.62
2018-09-18T14:10:49.409Z,30.56
2018-09-18T14:12:18.020Z,30.46
2018-09-18T14:13:45.772Z,30.41
2018-09-18T14:15:13.553Z,30.37
2018-09-18T14:16:40.018Z,30.35
2018-09-18T14:18:07.587Z,30.30
2018-09-18T14:19:35.192Z,30.28
2018-09-18T14:21:03.094Z,30.23
2018-09-18T14:22:30.412Z,30.17
2018-09-18T14:23:58.236Z,30.12
2018-09-18T14:25:25.926Z,30.04
2018-09-18T14:26:53.191Z,29.98
2018-09-18T14:28:20.910Z,29.94
2018-09-18T14:29:48.482Z,29.88
2018-09-18T14:31:16.045Z,29.83
2018-09-18T14:32:43.681Z,29.79
2018-09-18T14:34:11.325Z,29.77
2018-09-18T14:35:38.940Z,29.72
2018-09-18T14:37:06.558Z,29.68
2018-09-18T14:38:35.015Z,29.64
2018-09-18T14:40:01.753Z,29.63
2018-09-18T14:41:29.136Z,29.60
2018-09-18T14:42:56.736Z,29.57
2018-09-18T14:44:24.387Z,29.55
2018-09-18T14:45:52.101Z,29.51
2018-09-18T14:47:19.887Z,29.47
2018-09-18T14:48:46.747Z,29.45
2018-09-18T14:50:13.823Z,29.41
2018-09-18T14:51:41.548Z,29.39
2018-09-18T14:53:09.266Z,29.37
2018-09-18T14:54:36.714Z,29.35
2018-09-18T14:56:03.966Z,29.31
2018-09-18T14:57:31.588Z,29.27
2018-09-18T14:58:58.548Z,29.25
2018-09-18T15:00:25.840Z,29.23
2018-09-18T15:01:53.401Z,29.19
2018-09-18T15:03:21.737Z,29.17
2018-09-18T15:04:49.421Z,29.14
2018-09-18T15:06:16.354Z,29.12
2018-09-18T15:07:43.022Z,29.08
2018-09-18T15:09:11.687Z,29.02
2018-09-18T15:10:39.370Z,29.00
2018-09-18T15:12:05.924Z,28.97
2018-09-18T15:13:34.525Z,28.95
2018-09-18T15:15:00.746Z,28.92
2018-09-18T15:16:29.519Z,28.90
2018-09-18T15:17:57.138Z,28.87
2018-09-18T15:19:23.715Z,28.84
2018-09-18T15:20:51.612Z,28.82
2018-09-18T15:22:18.233Z,28.80
2018-09-18T15:23:45.217Z,28.79
2018-09-18T15:25:12.777Z,28.76
2018-09-18T15:26:40.411Z,28.73
2018-09-18T15:28:07.927Z,28.70
2018-09-18T15:29:36.116Z,28.68
2018-09-18T15:31:02.876Z,28.65
2018-09-18T15:32:29.949Z,28.62
2018-09-18T15:33:57.555Z,28.59
2018-09-18T15:35:25.069Z,28.57
2018-09-18T15:36:52.795Z,28.54
2018-09-18T15:38:19.869Z,28.52
2018-09-18T15:39:47.957Z,28.49
2018-09-18T15:41:14.506Z,28.46
2018-09-18T15:42:43.148Z,28.43
2018-09-18T15:44:09.612Z,28.40
2018-09-18T15:45:37.225Z,28.38
2018-09-18T15:47:04.316Z,28.36
2018-09-18T15:48:32.548Z,28.33
2018-09-18T15:49:58.992Z,28.30
2018-09-18T15:51:27.582Z,28.27
2018-09-18T15:52:54.068Z,28.24
2018-09-18T15:54:21.641Z,28.21
2018-09-18T15:55:50.199Z,28.18
2018-09-18T15:57:16.891Z,28.16
2018-09-18T15:58:44.510Z,28.13
2018-09-18T16:00:12.167Z,28.11
2018-09-18T16:01:39.502Z,28.08
2018-09-18T16:03:07.192Z,28.04
2018-09-18T16:04:35.739Z,28.00
2018-09-18T16:06:02.303Z,27.97
2018-09-18T16:07:30.165Z,27.93
2018-09-18T16:08:57.424Z,27.88
2018-09-18T16:10:24.866Z,27.84
2018-09-18T16:11:52.630Z,27.81
2018-09-18T16:13:21.293Z,27.77
2018-09-18T16:14:48.039Z,27.74
2018-09-18T16:16:16.672Z,27.72
2018-09-18T16:17:42.783Z,27.69
2018-09-18T16:19:11.327Z,27.65
2018-09-18T16:20:38.064Z,27.61
2018-09-18T16:22:05.629Z,27.57
2018-09-18T16:25:00.978Z,27.48
2018-09-18T16:26:28.506Z,27.45
2018-09-18T16:27:56.259Z,27.41
2018-09-18T16:29:23.740Z,27.37
2018-09-18T16:30:51.402Z,27.32
2018-09-18T16:32:18.075Z,27.28
2018-09-18T16:33:45.550Z,27.21
2018-09-18T16:35:13.216Z,27.16
2018-09-18T16:36:42.003Z,27.10
2018-09-18T16:38:08.423Z,27.05
2018-09-18T16:39:35.793Z,26.99
2018-09-18T16:41:03.419Z,26.93
2018-09-18T16:42:32.187Z,26.88
2018-09-18T16:43:59.662Z,26.82
2018-09-18T16:45:26.388Z,26.76
2018-09-18T16:46:53.741Z,26.69
2018-09-18T16:48:20.595Z,26.64
2018-09-18T16:49:48.208Z,26.58
2018-09-18T16:51:16.847Z,26.53
2018-09-18T16:52:43.574Z,26.48
2018-09-18T16:54:10.920Z,26.40
2018-09-18T16:55:37.960Z,26.30
2018-09-18T16:57:06.324Z,26.24
2018-09-18T16:58:33.021Z,26.19
2018-09-18T17:00:00.772Z,26.13
2018-09-18T17:01:29.461Z,26.09
2018-09-18T17:02:57.037Z,26.04
2018-09-18T17:04:24.699Z,26.00
2018-09-18T17:05:51.778Z,25.97
2018-09-18T17:07:18.298Z,25.93
2018-09-18T17:08:45.185Z,25.88
2018-09-18T17:10:12.987Z,25.83
2018-09-18T17:11:41.317Z,25.79
2018-09-18T17:13:07.972Z,25.75
2018-09-18T17:14:35.439Z,25.71
2018-09-18T17:16:02.301Z,25.66
2018-09-18T17:17:29.900Z,25.61
2018-09-18T17:18:58.512Z,25.56
2018-09-18T17:20:25.368Z,25.48
2018-09-18T17:21:51.903Z,25.42
2018-09-18T17:23:18.706Z,25.37
2018-09-18T17:24:46.759Z,25.30
2018-09-18T17:26:13.118Z,25.22
2018-09-18T17:27:40.825Z,25.16
2018-09-18T17:29:08.381Z,25.08
2018-09-18T17:30:35.569Z,25.02
2018-09-18T17:32:03.019Z,24.96
2018-09-18T17:33:31.665Z,24.91
2018-09-18T17:34:59.115Z,24.87
2018-09-18T17:36:24.960Z,24.83
2018-09-18T17:37:52.260Z,24.79
2018-09-18T17:39:20.922Z,24.76
2018-09-18T17:40:47.448Z,24.72
2018-09-18T17:42:15.073Z,24.69
2018-09-18T17:43:42.677Z,24.65
2018-09-18T17:45:11.301Z,24.60
2018-09-18T17:46:37.928Z,24.55
2018-09-18T17:48:05.570Z,24.49
2018-09-18T17:49:33.245Z,24.44
2018-09-18T17:50:59.349Z,24.37
2018-09-18T17:52:25.784Z,24.31
2018-09-18T17:53:54.440Z,24.26
2018-09-18T17:55:22.069Z,24.21
2018-09-18T17:56:48.676Z,24.16
2018-09-18T17:58:16.018Z,24.10
2018-09-18T17:59:43.690Z,24.05
2018-09-18T18:01:11.192Z,24.01
2018-09-18T18:02:37.815Z,23.97
2018-09-18T18:04:05.640Z,23.94
2018-09-18T18:05:32.369Z,23.93
2018-09-18T18:06:59.979Z,23.91
2018-09-18T18:08:26.589Z,23.89
2018-09-18T18:09:54.096Z,23.88
2018-09-18T18:11:21.212Z,23.86
2018-09-18T18:12:48.724Z,23.84
2018-09-18T18:14:16.226Z,23.81
2018-09-18T18:15:43.786Z,23.79
2018-09-18T18:17:11.379Z,23.77
2018-09-18T18:18:37.998Z,23.76
2018-09-18T18:20:05.388Z,23.74
2018-09-18T18:21:32.953Z,23.72
2018-09-18T18:23:00.323Z,23.71
2018-09-18T18:24:28.469Z,23.69
2018-09-18T18:25:55.072Z,23.66
2018-09-18T18:27:23.282Z,23.64
2018-09-18T18:28:50.427Z,23.63
2018-09-18T18:30:16.257Z,23.61
2018-09-18T18:31:44.819Z,23.57
2018-09-18T18:33:11.394Z,23.53
2018-09-18T18:34:39.962Z,23.51
2018-09-18T18:36:06.504Z,23.49
2018-09-18T18:37:35.111Z,23.46
2018-09-18T18:39:02.703Z,23.44
2018-09-18T18:40:28.388Z,23.41
2018-09-18T18:41:55.855Z,23.39
2018-09-18T18:43:24.384Z,23.37
2018-09-18T18:44:51.930Z,23.35
2018-09-18T18:46:19.519Z,23.33
2018-09-18T18:47:46.003Z,23.31
2018-09-18T18:49:12.812Z,23.30
2018-09-18T18:50:40.356Z,23.29
2018-09-18T18:52:07.465Z,23.28
2018-09-18T18:53:34.905Z,23.27
2018-09-18T18:55:02.554Z,23.25
2018-09-18T18:56:31.185Z,23.24
2018-09-18T18:57:57.829Z,23.22